UUEE - Шереметьево
Обновление: 00:00:00 24.05.2024
Безоблачно
Безоблачно
 Wind from NW
Ветер: NW 320° at 4 mph , 7 km/h
Превышение порта: 630 ft. или 192 м.
Высота перехода: 4570 ft.
Эшелон перехода: 4570 ft.
Явления: Безоблачно
Видимость: более 7 миль , 10 km
Рабочие полосы: 24L с курсом 244 градусов, частота КГС 110.5
24C с курсом 244 градусов, частота КГС 111.3
24R с курсом 244 градусов, частота КГС 109.35
Состояние ВПП: Полоса 06C, состояние: , прощадью , толщина менее 1 см, сцепление 62%
Погодные явления:
2024-05-24 00:00:00 UUEE 240000Z 32002MPS CAVOK 10/02 Q1031 R06C/CLRD62 NOSIG
UUDD - Домодедово
Обновление: 00:00:00 24.05.2024
Безоблачно
Безоблачно
 Wind from SE
Ветер: SE 140° at 4 mph , 7 km/h
Превышение порта: 594 ft. или 181 м.
Высота перехода: 4540 ft.
Эшелон перехода: 4540 ft.
Явления: Безоблачно
Видимость: более 7 миль , 10 km
Рабочие полосы: 14L с курсом 135 градусов, частота КГС 0
14R с курсом 135 градусов, частота КГС 110.1
14 с курсом 135 градусов, частота КГС 108.5
Состояние ВПП: Полоса 14R, состояние: , прощадью , толщина менее 1 см, сцепление 60%
Погодные явления:
2024-05-24 00:00:00 UUDD 240000Z 14002MPS CAVOK 08/02 Q1031 R14R/CLRD60 NOSIG
UUWW - Внуково
Обновление: 03:09:00 24.05.2024
Безоблачно
Безоблачно
 Wind from S
Ветер: S 170° at 7 mph , 11 km/h
Превышение порта: 686 ft. или 209 м.
Высота перехода: 4630 ft.
Эшелон перехода: 4630 ft.
Явления: Безоблачно
Видимость: более 7 миль , 10 km
Рабочие полосы: 24 с курсом 238 градусов, частота КГС 111.1
19 с курсом 193 градусов, частота КГС 111.5
Состояние ВПП: Полоса 06, состояние: чистая и сухая, прощадью , толщина менее 1 см, сцепление 65%
Погодные явления:
2024/05/24 03:09 UUWW 240000Z 17003MPS CAVOK 08/03 Q1031 R06/000065 NOSIG
 
UWGG - Стригино Нижний-Новгород
Обновление: 00:00:00 24.05.2024
Безоблачно
Безоблачно
 Wind from calm
Ветер: Штиль
Превышение порта: 259 ft. или 79 м.
Высота перехода: 3220 ft.
Эшелон перехода: 3220 ft.
Явления: Безоблачно
Видимость: более 7 миль , 10 km
Рабочие полосы: На усмотрение органов УВД
Состояние ВПП: Полоса 18L, состояние: чистая и сухая, прощадью 51-100%, толщина менее 1 см, сцепление 70%
Погодные явления:
2024-05-24 00:00:00 UWGG 240000Z 00000MPS CAVOK 02/01 Q1032 R18L/090070 NOSIG
UWWW - Курумоч Самара
Обновление: 00:00:00 24.05.2024
Безоблачно
Безоблачно
 Wind from N
Ветер: N 350° at 7 mph , 11 km/h
Превышение порта: 476 ft. или 145 м.
Высота перехода: 3430 ft.
Эшелон перехода: 3430 ft.
Явления: Безоблачно
Видимость: более 7 миль , 10 km
Рабочие полосы: 33 с курсом 328 градусов, частота КГС 111.1
Состояние ВПП: Полоса 33, состояние: чистая и сухая, прощадью 51-100%, толщина менее 1 см, сцепление 63%
Погодные явления:
2024-05-24 00:00:00 UWWW 240000Z 35003MPS CAVOK 02/M06 Q1029 R33/CLRD63 NOSIG RMK QFE761/1015
ULLI - Пулково Питер
Обновление: 00:00:00 24.05.2024
Безоблачно
Безоблачно
 Wind from variable
Ветер: variable at 2 mph , 4 km/h
Превышение порта: 79 ft. или 24 м.
Высота перехода: 3500 ft.
Эшелон перехода: 3500 ft.
Явления: Безоблачно
Видимость: более 7 миль , 10 km
Рабочие полосы: На усмотрение органов УВД
Состояние ВПП: Полоса 10L, состояние: чистая и сухая, прощадью 51-100%, толщина менее 1 см, сцепление 60%
Погодные явления:
2024-05-24 00:00:00 ULLI 240000Z VRB01MPS CAVOK 13/07 Q1028 R10L/090060 NOSIG
 
ULMM - Мурманск
Обновление: 00:00:00 24.05.2024
Безоблачно
Безоблачно
 Wind from WSW
Ветер: WSW 240° at 7 mph , 11 km/h
Превышение порта: 266 ft. или 81 м.
Высота перехода: 3220 ft.
Эшелон перехода: 3220 ft.
Явления: Безоблачно
Видимость: более 7 миль , 10 km
Рабочие полосы: 31 с курсом 311 градусов, частота КГС 108.5
Состояние ВПП: Полоса 13, состояние: чистая и сухая, прощадью 51-100%, толщина менее 1 см, сцепление 70%
Погодные явления:
2024-05-24 00:00:00 ULMM 240000Z 24003MPS CAVOK 16/04 Q1011 R13/090070 NOSIG RMK QFE752
URSS - Сочи
Обновление: 03:04:00 24.05.2024
Рваная облачность
Рваная облачность
 Wind from NE
Ветер: NE 040° at 7 mph , 11 km/h
Превышение порта: 89 ft. или 27 м.
Высота перехода: 3700 ft.
Эшелон перехода: 5000 ft.
Температура: 57°F , 14°C
Точка росы: 54°F , 12°C
Влажность: 88%
Давление: 29.77 inHg , 1008 hPa
QFE: 754 мм.рт.ст. ( 29.67 inHg (1005 hPa)
Облачность: Рваная облачность
Видимость: 6 miles , 10 km
Рабочие полосы: 02 с курсом 22 градусов, частота КГС 110.5
06 с курсом 58 градусов, частота КГС 111.1
Состояние ВПП: Полоса 02, состояние: чистая и сухая, прощадью менее 10%, толщина менее 1 см, сцепление 70%
Полоса 06, состояние: чистая и сухая, прощадью менее 10%, толщина менее 1 см, сцепление 70%
Погодные явления: - нет существенной облачности;
2024/05/24 03:04 URSS 232330Z 04003MPS 9999 NSC 14/12 Q1008 R02/010070 R06/010070 NOSIG RMK R06/08003MPS QFE755
URRP - Платов Ростов-на-Дону
Обновление: 00:00:00 24.05.2024
Безоблачно
Безоблачно
 Wind from E
Ветер: E 080° at 13 mph , 22 km/h
Превышение порта: 282 ft. или 86 м.
Высота перехода: 3240 ft.
Эшелон перехода: 5000 ft.
Явления: Безоблачно
Видимость: более 7 миль , 10 km
Рабочие полосы: 05 с курсом 46 градусов, частота КГС 111.5
Состояние ВПП: Полоса 05, состояние: чистая и сухая, прощадью менее 10%, толщина менее 1 см, сцепление 70%
Погодные явления:
2024-05-24 00:00:00 URRP 240000Z 08006MPS CAVOK 16/09 Q1019 R05/CLRD70 NOSIG RMK QFE759/1012
 
URWW - Волгоград
Обновление: 00:00:00 24.05.2024
Безоблачно
Безоблачно
 Wind from ENE
Ветер: ENE 070° at 27 mph , 43 km/h
Превышение порта: 476 ft. или 145 м.
Высота перехода: 2780 ft.
Эшелон перехода: 2780 ft.
Явления: Безоблачно
Видимость: более 7 миль , 10 km
Рабочие полосы: 06 с курсом 55 градусов, частота КГС 111.7
Состояние ВПП: Полоса 05, состояние: чистая и сухая, прощадью менее 10%, толщина менее 1 см, сцепление 70%
Погодные явления:
2024-05-24 00:00:00 URWW 240000Z 07012MPS CAVOK 12/M00 Q1023 R05/010070 NOSIG
ULAA - Архангельск
Обновление: 00:00:00 24.05.2024
Разбросанная или отдельная, 3–4 октанта облачность
Разбросанная или отдельная, 3–4 октанта облачность
 Wind from WSW
Ветер: WSW 240° at 9 mph , 14 km/h
Превышение порта: 62 ft. или 19 м.
Высота перехода: 2690 ft.
Эшелон перехода: 2690 ft.
Температура: 54°F , 12°C
Точка росы: 37°F , 3°C
Влажность: 54%
Давление: 30.09 inHg , 1019 hPa
QFE: 763 мм.рт.ст. ( 30.03 inHg (1017 hPa)
Облачность: Разбросанная или отдельная, 3–4 октанта облачность
Видимость: 6 miles , 10 km
Информация по облачности: Разбросанная или отдельная, 3–4 октанта облачность 3000 ft
Рабочие полосы: 26 с курсом 261 градусов, частота КГС 111.7
Состояние ВПП: Полоса 26, состояние: чистая и сухая, прощадью менее 10%, толщина менее 1 см, сцепление 70%
Погодные явления:
2024-05-24 00:00:00 ULAA 240000Z 24004MPS 160V270 9999 SCT030 12/03 Q1019 R26/CLRD70 NOSIG RMK QFE763/1017
USPP - Пермь
Обновление: 00:00:00 24.05.2024
Безоблачно
Безоблачно
 Wind from SW
Ветер: SW 230° at 4 mph , 7 km/h
Превышение порта: 404 ft. или 123 м.
Высота перехода: 4350 ft.
Эшелон перехода: 4350 ft.
Явления: Безоблачно
Видимость: более 7 миль , 10 km
Рабочие полосы: 21 с курсом 211 градусов, частота КГС 109.9
Состояние ВПП: Полоса 21, состояние: чистая и сухая, прощадью 51-100%, толщина менее 1 см, сцепление 60%
Погодные явления:
2024-05-24 00:00:00 USPP 240000Z 23002MPS CAVOK M02/M07 Q1027 R21/090060 NOSIG RMK QFE760
 
USSS - Екатеринбург
Обновление: 00:00:00 24.05.2024
Безоблачно
Безоблачно
 Wind from W
Ветер: W 260° at 7 mph , 11 km/h
Превышение порта: 768 ft. или 234 м.
Высота перехода: 3730 ft.
Эшелон перехода: 3730 ft.
Явления: Безоблачно
Видимость: более 7 миль , 10 km
Рабочие полосы: 26L с курсом 259 градусов, частота КГС 109.5
26R с курсом 255 градусов, частота КГС 110.5
Состояние ВПП: Полоса 26R, состояние: чистая и сухая, прощадью менее 10%, толщина менее 1 см, сцепление 60%
Полоса 26L, состояние: чистая и сухая, прощадью менее 10%, толщина менее 1 см, сцепление 60%
Погодные явления:
2024-05-24 00:00:00 USSS 240000Z 26003MPS CAVOK M01/M06 Q1025 R26R/010060 R26L/010060 NOSIG RMK QFE748/0998
USTR - Тюмень
Обновление: 00:00:00 24.05.2024
Безоблачно
Безоблачно
 Wind from WNW
Ветер: WNW 300° at 4 mph , 7 km/h
Превышение порта: 377 ft. или 115 м.
Высота перехода: 2680 ft.
Эшелон перехода: 4000 ft.
Явления: Безоблачно
Видимость: более 7 миль , 10 km
Рабочие полосы: 30 с курсом 300 градусов, частота КГС 111.1
21 с курсом 213 градусов, частота КГС 110.7
Состояние ВПП: Полоса 03, состояние: чистая и сухая, прощадью 51-100%, толщина менее 1 см, сцепление 65%
Полоса 30, состояние: чистая и сухая, прощадью 51-100%, толщина менее 1 см, сцепление 65%
Погодные явления:
2024-05-24 00:00:00 USTR 240000Z 30002MPS CAVOK M00/M07 Q1023 R03/090065 R30/090065 NOSIG
UNNT - Новосибирск
Обновление: 00:00:00 24.05.2024
Безоблачно
Безоблачно
 Wind from SSE
Ветер: SSE 160° at 9 mph , 14 km/h
Превышение порта: 367 ft. или 112 м.
Высота перехода: 4640 ft.
Эшелон перехода: 6000 ft.
Явления: Безоблачно
Видимость: более 7 миль , 10 km
Рабочие полосы: 07 с курсом 72 градусов, частота КГС 110.1
16 с курсом 161 градусов, частота КГС 109.7
Состояние ВПП: Полоса 25, состояние: мокрая, прощадью 51-100%, толщина 01 мм, сцепление 60%
Погодные явления:
2024-05-24 00:00:00 UNNT 240000Z 16004MPS CAVOK 11/11 Q1010 R25/290160 R16/////// NOSIG RMK QFE748/0997
 
URKK - Краснодар
Обновление: 00:00:00 24.05.2024
Безоблачно
Безоблачно
 Wind from E
Ветер: E 080° at 13 mph , 22 km/h
Превышение порта: 118 ft. или 36 м.
Высота перехода: 4060 ft.
Эшелон перехода: 4060 ft.
Явления: Безоблачно
Видимость: более 7 миль , 10 km
Рабочие полосы: 05R с курсом 46 градусов, частота КГС 110.7
05L с курсом 46 градусов, частота КГС 0
Состояние ВПП: Полоса 05R, состояние: мокрая, прощадью 51-100%, толщина менее 1 см, сцепление 70%
Погодные явления:
2024-05-24 00:00:00 URKK 240000Z 08006MPS CAVOK 18/06 Q1012 R05R/CLRD70 NOSIG RMK QFE756
UNKL - Красноярск
Обновление: 00:00:00 24.05.2024
Безоблачно
Безоблачно
 Wind from E
Ветер: E 080° at 2 mph , 4 km/h
Превышение порта: 942 ft. или 287 м.
Высота перехода: 4880 ft.
Эшелон перехода: 6000 ft.
Явления: Безоблачно
Видимость: более 7 миль , 10 km
Рабочие полосы: 11 с курсом 109 градусов, частота КГС 110.5
Состояние ВПП: Полоса 29, состояние: мокрая, прощадью 51-100%, толщина менее 1 см, сцепление 65%
Погодные явления:
2024-05-24 00:00:00 UNKL 240000Z 08001MPS CAVOK 12/08 Q1017 R29/CLRD65 NOSIG RMK QFE737
USTR - Рощино
Обновление: 03:21:00 24.05.2024
Безоблачно
Безоблачно
 Wind from WNW
Ветер: WNW 300° at 4 mph , 7 km/h
Превышение порта: 377 ft. или 115 м.
Высота перехода: 2680 ft.
Эшелон перехода: 4000 ft.
Явления: Безоблачно
Видимость: более 7 миль , 10 km
Рабочие полосы: 30 с курсом 300 градусов, частота КГС 111.1
21 с курсом 213 градусов, частота КГС 110.7
Состояние ВПП: Полоса 03, состояние: чистая и сухая, прощадью 51-100%, толщина менее 1 см, сцепление 65%
Полоса 30, состояние: чистая и сухая, прощадью 51-100%, толщина менее 1 см, сцепление 65%
Погодные явления:
2024/05/24 03:21 USTR 240000Z 30002MPS CAVOK M00/M07 Q1023 R03/090065 R30/090065 NOSIG
 
EFTP - Тампа Фин.
Обновление: 23:50:00 23.05.2024
Безоблачно
Безоблачно
 Wind from SSE
Ветер: SSE 150° at 7 mph , 11 km/h
Превышение порта: 391 ft. или 119 м.
Высота перехода: 5000 ft.
Эшелон перехода: 5000 ft.
Явления: Безоблачно
Видимость: более 7 миль , 10 km
Рабочие полосы: 24 с курсом 236 градусов, частота КГС 110.1
Состояние ВПП:
Погодные явления:
2024/05/23 23:50 EFTP 232350Z AUTO 15006KT CAVOK 14/06 Q1025
EFHK - Хельсенки
Обновление: 23:50:00 23.05.2024
Безоблачно
Безоблачно
 Wind from ENE
Ветер: ENE 060° at 5 mph , 7 km/h
Превышение порта: 180 ft. или 55 м.
Высота перехода: 5000 ft.
Эшелон перехода: 5000 ft.
Явления: Безоблачно
Видимость: более 7 миль , 10 km
Рабочие полосы: 04R с курсом 39 градусов, частота КГС 111.5
04L с курсом 39 градусов, частота КГС 111.9
15 с курсом 145 градусов, частота КГС 109.1
Состояние ВПП:
Погодные явления:
2024/05/23 23:50 EFHK 232350Z 06004KT CAVOK 11/07 Q1025 NOSIG